sensor_id;sensor_type;location;lat;lon;timestamp;temperature;humidity
76211;DHT22;65003;49.518;11.280;2024-01-06T00:00:12;5.90;99.90
76211;DHT22;65003;49.518;11.280;2024-01-06T00:02:39;5.90;99.90
76211;DHT22;65003;49.518;11.280;2024-01-06T00:05:06;5.90;99.90
76211;DHT22;65003;49.518;11.280;2024-01-06T00:07:32;6.10;99.90
76211;DHT22;65003;49.518;11.280;2024-01-06T00:09:59;5.90;99.90
76211;DHT22;65003;49.518;11.280;2024-01-06T00:12:25;5.90;99.90
76211;DHT22;65003;49.518;11.280;2024-01-06T00:14:52;5.90;99.90
76211;DHT22;65003;49.518;11.280;2024-01-06T00:17:18;5.90;99.90
76211;DHT22;65003;49.518;11.280;2024-01-06T00:19:45;5.90;99.90
76211;DHT22;65003;49.518;11.280;2024-01-06T00:22:12;5.90;99.90
76211;DHT22;65003;49.518;11.280;2024-01-06T00:24:38;5.90;99.90
76211;DHT22;65003;49.518;11.280;2024-01-06T00:27:05;5.90;99.90
76211;DHT22;65003;49.518;11.280;2024-01-06T00:29:31;5.90;99.90
76211;DHT22;65003;49.518;11.280;2024-01-06T00:31:58;5.90;99.90
76211;DHT22;65003;49.518;11.280;2024-01-06T00:34:25;5.90;99.90
76211;DHT22;65003;49.518;11.280;2024-01-06T00:36:52;5.90;99.90
76211;DHT22;65003;49.518;11.280;2024-01-06T00:39:19;5.90;99.90
76211;DHT22;65003;49.518;11.280;2024-01-06T00:41:44;5.90;99.90
76211;DHT22;65003;49.518;11.280;2024-01-06T00:44:11;5.90;99.90
76211;DHT22;65003;49.518;11.280;2024-01-06T00:46:38;6.00;99.90
76211;DHT22;65003;49.518;11.280;2024-01-06T00:49:04;6.00;99.90
76211;DHT22;65003;49.518;11.280;2024-01-06T00:51:31;6.10;99.90
76211;DHT22;65003;49.518;11.280;2024-01-06T00:53:57;6.10;99.90
76211;DHT22;65003;49.518;11.280;2024-01-06T00:56:24;6.00;99.90
76211;DHT22;65003;49.518;11.280;2024-01-06T00:58:50;5.90;99.90
76211;DHT22;65003;49.518;11.280;2024-01-06T01:01:17;5.90;99.90
76211;DHT22;65003;49.518;11.280;2024-01-06T01:03:44;5.90;99.90
76211;DHT22;65003;49.518;11.280;2024-01-06T01:06:11;6.00;99.90
76211;DHT22;65003;49.518;11.280;2024-01-06T01:08:38;6.10;99.90
76211;DHT22;65003;49.518;11.280;2024-01-06T01:11:04;6.00;99.90
76211;DHT22;65003;49.518;11.280;2024-01-06T01:13:31;6.00;99.90
76211;DHT22;65003;49.518;11.280;2024-01-06T01:15:57;6.00;99.90
76211;DHT22;65003;49.518;11.280;2024-01-06T01:18:24;6.00;99.90
76211;DHT22;65003;49.518;11.280;2024-01-06T01:20:51;5.90;99.90
76211;DHT22;65003;49.518;11.280;2024-01-06T01:23:17;6.00;99.90
76211;DHT22;65003;49.518;11.280;2024-01-06T01:25:44;5.90;99.90
76211;DHT22;65003;49.518;11.280;2024-01-06T01:28:10;5.90;99.90
76211;DHT22;65003;49.518;11.280;2024-01-06T01:30:37;5.90;99.90
76211;DHT22;65003;49.518;11.280;2024-01-06T01:33:04;5.70;99.90
76211;DHT22;65003;49.518;11.280;2024-01-06T01:35:30;5.60;99.90
76211;DHT22;65003;49.518;11.280;2024-01-06T01:37:57;5.60;99.90
76211;DHT22;65003;49.518;11.280;2024-01-06T01:40:23;5.60;99.90
76211;DHT22;65003;49.518;11.280;2024-01-06T01:42:50;5.60;99.90
76211;DHT22;65003;49.518;11.280;2024-01-06T01:45:16;5.50;99.90
76211;DHT22;65003;49.518;11.280;2024-01-06T01:47:43;5.40;99.90
76211;DHT22;65003;49.518;11.280;2024-01-06T01:50:10;5.50;99.90
76211;DHT22;65003;49.518;11.280;2024-01-06T01:52:36;5.40;99.90
76211;DHT22;65003;49.518;11.280;2024-01-06T01:55:03;5.30;99.90
76211;DHT22;65003;49.518;11.280;2024-01-06T01:57:30;5.40;99.90
76211;DHT22;65003;49.518;11.280;2024-01-06T01:59:56;5.30;99.90
76211;DHT22;65003;49.518;11.280;2024-01-06T02:02:23;5.20;99.90
76211;DHT22;65003;49.518;11.280;2024-01-06T02:04:50;5.20;99.90
76211;DHT22;65003;49.518;11.280;2024-01-06T02:07:16;5.30;99.90
76211;DHT22;65003;49.518;11.280;2024-01-06T02:09:43;5.30;99.90
76211;DHT22;65003;49.518;11.280;2024-01-06T02:12:09;5.40;99.90
76211;DHT22;65003;49.518;11.280;2024-01-06T02:14:36;5.40;99.90
76211;DHT22;65003;49.518;11.280;2024-01-06T02:17:03;5.30;99.90
76211;DHT22;65003;49.518;11.280;2024-01-06T02:19:29;5.50;99.90
76211;DHT22;65003;49.518;11.280;2024-01-06T02:21:56;5.50;99.90
76211;DHT22;65003;49.518;11.280;2024-01-06T02:24:22;5.60;99.90
76211;DHT22;65003;49.518;11.280;2024-01-06T02:26:49;5.40;99.90
76211;DHT22;65003;49.518;11.280;2024-01-06T02:29:16;5.40;99.90
76211;DHT22;65003;49.518;11.280;2024-01-06T02:31:42;5.30;99.90
76211;DHT22;65003;49.518;11.280;2024-01-06T02:34:09;5.30;99.90
76211;DHT22;65003;49.518;11.280;2024-01-06T02:36:35;5.40;99.90
76211;DHT22;65003;49.518;11.280;2024-01-06T02:39:02;5.40;99.90
76211;DHT22;65003;49.518;11.280;2024-01-06T02:41:28;5.50;99.90
76211;DHT22;65003;49.518;11.280;2024-01-06T02:43:55;5.50;99.90
76211;DHT22;65003;49.518;11.280;2024-01-06T02:46:22;5.40;99.90
76211;DHT22;65003;49.518;11.280;2024-01-06T02:48:49;5.40;99.90
76211;DHT22;65003;49.518;11.280;2024-01-06T02:51:16;5.40;99.90
76211;DHT22;65003;49.518;11.280;2024-01-06T02:53:42;5.40;99.90
76211;DHT22;65003;49.518;11.280;2024-01-06T02:56:11;5.40;99.90
76211;DHT22;65003;49.518;11.280;2024-01-06T02:58:38;5.40;99.90
76211;DHT22;65003;49.518;11.280;2024-01-06T03:01:04;5.50;99.90
76211;DHT22;65003;49.518;11.280;2024-01-06T03:03:30;5.50;99.90
76211;DHT22;65003;49.518;11.280;2024-01-06T03:05:57;5.50;99.90
76211;DHT22;65003;49.518;11.280;2024-01-06T03:08:24;5.50;99.90
76211;DHT22;65003;49.518;11.280;2024-01-06T03:10:50;5.60;99.90
76211;DHT22;65003;49.518;11.280;2024-01-06T03:13:17;5.60;99.90
76211;DHT22;65003;49.518;11.280;2024-01-06T03:15:43;5.60;99.90
76211;DHT22;65003;49.518;11.280;2024-01-06T03:18:10;5.60;99.90
76211;DHT22;65003;49.518;11.280;2024-01-06T03:20:36;5.50;99.90
76211;DHT22;65003;49.518;11.280;2024-01-06T03:23:03;5.40;99.90
76211;DHT22;65003;49.518;11.280;2024-01-06T03:25:30;5.30;99.90
76211;DHT22;65003;49.518;11.280;2024-01-06T03:27:56;5.30;99.90
76211;DHT22;65003;49.518;11.280;2024-01-06T03:30:23;5.20;99.90
76211;DHT22;65003;49.518;11.280;2024-01-06T03:32:49;5.20;99.90
76211;DHT22;65003;49.518;11.280;2024-01-06T03:35:16;5.20;99.90
76211;DHT22;65003;49.518;11.280;2024-01-06T03:37:43;5.20;99.90
76211;DHT22;65003;49.518;11.280;2024-01-06T03:40:10;5.20;99.90
76211;DHT22;65003;49.518;11.280;2024-01-06T03:42:36;5.30;99.90
76211;DHT22;65003;49.518;11.280;2024-01-06T03:45:04;5.30;99.90
76211;DHT22;65003;49.518;11.280;2024-01-06T03:47:31;5.30;99.90
76211;DHT22;65003;49.518;11.280;2024-01-06T03:49:57;5.40;99.90
76211;DHT22;65003;49.518;11.280;2024-01-06T03:52:24;5.40;99.90
76211;DHT22;65003;49.518;11.280;2024-01-06T03:54:51;5.40;99.90
76211;DHT22;65003;49.518;11.280;2024-01-06T03:57:18;5.40;99.90
76211;DHT22;65003;49.518;11.280;2024-01-06T03:59:45;5.40;99.90
76211;DHT22;65003;49.518;11.280;2024-01-06T04:02:12;5.40;99.90
76211;DHT22;65003;49.518;11.280;2024-01-06T04:04:39;5.50;99.90
76211;DHT22;65003;49.518;11.280;2024-01-06T04:07:05;5.50;99.90
76211;DHT22;65003;49.518;11.280;2024-01-06T04:09:32;5.50;99.90
76211;DHT22;65003;49.518;11.280;2024-01-06T04:11:58;5.40;99.90
76211;DHT22;65003;49.518;11.280;2024-01-06T04:14:25;5.40;99.90
76211;DHT22;65003;49.518;11.280;2024-01-06T04:16:52;5.30;99.90
76211;DHT22;65003;49.518;11.280;2024-01-06T04:19:18;5.20;99.90
76211;DHT22;65003;49.518;11.280;2024-01-06T04:21:45;5.20;99.90
76211;DHT22;65003;49.518;11.280;2024-01-06T04:24:11;5.20;99.90
76211;DHT22;65003;49.518;11.280;2024-01-06T04:26:38;5.30;99.90
76211;DHT22;65003;49.518;11.280;2024-01-06T04:29:04;5.30;99.90
76211;DHT22;65003;49.518;11.280;2024-01-06T04:31:31;5.20;99.90
76211;DHT22;65003;49.518;11.280;2024-01-06T04:33:58;5.10;99.90
76211;DHT22;65003;49.518;11.280;2024-01-06T04:36:24;5.20;99.90
76211;DHT22;65003;49.518;11.280;2024-01-06T04:38:51;5.20;99.90
76211;DHT22;65003;49.518;11.280;2024-01-06T04:41:17;5.30;99.90
76211;DHT22;65003;49.518;11.280;2024-01-06T04:43:44;5.30;99.90
76211;DHT22;65003;49.518;11.280;2024-01-06T04:46:11;5.40;99.90
76211;DHT22;65003;49.518;11.280;2024-01-06T04:48:38;5.40;99.90
76211;DHT22;65003;49.518;11.280;2024-01-06T04:51:04;5.40;99.90
76211;DHT22;65003;49.518;11.280;2024-01-06T04:53:30;5.30;99.90
76211;DHT22;65003;49.518;11.280;2024-01-06T04:55:57;5.20;99.90
76211;DHT22;65003;49.518;11.280;2024-01-06T04:58:24;5.20;99.90
76211;DHT22;65003;49.518;11.280;2024-01-06T05:00:50;5.20;99.90
76211;DHT22;65003;49.518;11.280;2024-01-06T05:03:17;5.20;99.90
76211;DHT22;65003;49.518;11.280;2024-01-06T05:05:43;5.20;99.90
76211;DHT22;65003;49.518;11.280;2024-01-06T05:08:10;5.20;99.90
76211;DHT22;65003;49.518;11.280;2024-01-06T05:10:37;5.10;99.90
76211;DHT22;65003;49.518;11.280;2024-01-06T05:13:03;5.10;99.90
76211;DHT22;65003;49.518;11.280;2024-01-06T05:15:30;5.10;99.90
76211;DHT22;65003;49.518;11.280;2024-01-06T05:17:56;5.20;99.90
76211;DHT22;65003;49.518;11.280;2024-01-06T05:20:23;5.10;99.90
76211;DHT22;65003;49.518;11.280;2024-01-06T05:22:50;5.20;99.90
76211;DHT22;65003;49.518;11.280;2024-01-06T05:25:16;5.00;99.90
76211;DHT22;65003;49.518;11.280;2024-01-06T05:27:43;5.00;99.90
76211;DHT22;65003;49.518;11.280;2024-01-06T05:30:10;5.00;99.90
76211;DHT22;65003;49.518;11.280;2024-01-06T05:32:36;4.90;99.90
76211;DHT22;65003;49.518;11.280;2024-01-06T05:35:03;4.90;99.90
76211;DHT22;65003;49.518;11.280;2024-01-06T05:37:31;4.80;99.90
76211;DHT22;65003;49.518;11.280;2024-01-06T05:39:56;4.70;99.90
76211;DHT22;65003;49.518;11.280;2024-01-06T05:42:23;4.70;99.90
76211;DHT22;65003;49.518;11.280;2024-01-06T05:44:49;4.70;99.90
76211;DHT22;65003;49.518;11.280;2024-01-06T05:47:16;4.60;99.90
76211;DHT22;65003;49.518;11.280;2024-01-06T05:49:43;4.60;99.90
76211;DHT22;65003;49.518;11.280;2024-01-06T05:52:09;4.70;99.90
76211;DHT22;65003;49.518;11.280;2024-01-06T05:54:36;4.70;99.90
76211;DHT22;65003;49.518;11.280;2024-01-06T05:57:02;4.60;99.90
76211;DHT22;65003;49.518;11.280;2024-01-06T05:59:32;4.50;99.90
76211;DHT22;65003;49.518;11.280;2024-01-06T06:01:56;4.50;99.90
76211;DHT22;65003;49.518;11.280;2024-01-06T06:04:22;4.40;99.90
76211;DHT22;65003;49.518;11.280;2024-01-06T06:06:49;4.40;99.90
76211;DHT22;65003;49.518;11.280;2024-01-06T06:09:15;4.30;99.90
76211;DHT22;65003;49.518;11.280;2024-01-06T06:11:42;4.30;99.90
76211;DHT22;65003;49.518;11.280;2024-01-06T06:14:09;4.30;99.90
76211;DHT22;65003;49.518;11.280;2024-01-06T06:16:35;4.20;99.90
76211;DHT22;65003;49.518;11.280;2024-01-06T06:19:02;4.20;99.90
76211;DHT22;65003;49.518;11.280;2024-01-06T06:21:28;4.20;99.90
76211;DHT22;65003;49.518;11.280;2024-01-06T06:23:55;4.20;99.90
76211;DHT22;65003;49.518;11.280;2024-01-06T06:26:21;4.20;99.90
76211;DHT22;65003;49.518;11.280;2024-01-06T06:28:48;4.30;99.90
76211;DHT22;65003;49.518;11.280;2024-01-06T06:31:15;4.40;99.90
76211;DHT22;65003;49.518;11.280;2024-01-06T06:33:41;4.30;99.90
76211;DHT22;65003;49.518;11.280;2024-01-06T06:36:08;4.20;99.90
76211;DHT22;65003;49.518;11.280;2024-01-06T06:38:34;4.20;99.90
76211;DHT22;65003;49.518;11.280;2024-01-06T06:41:01;4.30;99.90
76211;DHT22;65003;49.518;11.280;2024-01-06T06:43:28;4.40;99.90
76211;DHT22;65003;49.518;11.280;2024-01-06T06:45:54;4.50;99.90
76211;DHT22;65003;49.518;11.280;2024-01-06T06:48:22;4.50;99.90
76211;DHT22;65003;49.518;11.280;2024-01-06T06:50:48;4.50;99.90
76211;DHT22;65003;49.518;11.280;2024-01-06T06:53:15;4.40;99.90
76211;DHT22;65003;49.518;11.280;2024-01-06T06:55:41;4.40;99.90
76211;DHT22;65003;49.518;11.280;2024-01-06T06:58:08;4.40;99.90
76211;DHT22;65003;49.518;11.280;2024-01-06T07:00:35;4.50;99.90
76211;DHT22;65003;49.518;11.280;2024-01-06T07:03:01;4.50;99.90
76211;DHT22;65003;49.518;11.280;2024-01-06T07:05:28;4.40;99.90
76211;DHT22;65003;49.518;11.280;2024-01-06T07:07:54;4.40;99.90
76211;DHT22;65003;49.518;11.280;2024-01-06T07:10:21;4.40;99.90
76211;DHT22;65003;49.518;11.280;2024-01-06T07:12:48;4.30;99.90
76211;DHT22;65003;49.518;11.280;2024-01-06T07:15:14;4.30;99.90
76211;DHT22;65003;49.518;11.280;2024-01-06T07:17:41;4.20;99.90
76211;DHT22;65003;49.518;11.280;2024-01-06T07:20:08;4.20;99.90
76211;DHT22;65003;49.518;11.280;2024-01-06T07:22:35;4.20;99.90
76211;DHT22;65003;49.518;11.280;2024-01-06T07:25:01;4.30;99.90
76211;DHT22;65003;49.518;11.280;2024-01-06T07:27:28;4.40;99.90
76211;DHT22;65003;49.518;11.280;2024-01-06T07:29:54;4.50;99.90
76211;DHT22;65003;49.518;11.280;2024-01-06T07:32:22;4.50;99.90
76211;DHT22;65003;49.518;11.280;2024-01-06T07:34:47;4.60;99.90
76211;DHT22;65003;49.518;11.280;2024-01-06T07:37:14;4.60;99.90
76211;DHT22;65003;49.518;11.280;2024-01-06T07:39:41;4.60;99.90
76211;DHT22;65003;49.518;11.280;2024-01-06T07:42:07;4.40;99.90
76211;DHT22;65003;49.518;11.280;2024-01-06T07:44:34;4.40;99.90
76211;DHT22;65003;49.518;11.280;2024-01-06T07:47:00;4.30;99.90
76211;DHT22;65003;49.518;11.280;2024-01-06T07:49:27;4.40;99.90
76211;DHT22;65003;49.518;11.280;2024-01-06T07:51:53;4.40;99.90
76211;DHT22;65003;49.518;11.280;2024-01-06T07:54:20;4.50;99.90
76211;DHT22;65003;49.518;11.280;2024-01-06T07:56:47;4.60;99.90
76211;DHT22;65003;49.518;11.280;2024-01-06T07:59:13;4.70;99.90
76211;DHT22;65003;49.518;11.280;2024-01-06T08:01:40;4.80;99.90
76211;DHT22;65003;49.518;11.280;2024-01-06T08:04:07;4.80;99.90
76211;DHT22;65003;49.518;11.280;2024-01-06T08:06:33;4.80;99.90
76211;DHT22;65003;49.518;11.280;2024-01-06T08:09:00;5.00;99.90
76211;DHT22;65003;49.518;11.280;2024-01-06T08:11:26;5.10;99.90
76211;DHT22;65003;49.518;11.280;2024-01-06T08:13:53;5.20;99.90
76211;DHT22;65003;49.518;11.280;2024-01-06T08:16:20;5.20;99.90
76211;DHT22;65003;49.518;11.280;2024-01-06T08:18:46;5.10;99.90
76211;DHT22;65003;49.518;11.280;2024-01-06T08:21:13;5.00;99.90
76211;DHT22;65003;49.518;11.280;2024-01-06T08:23:40;4.90;99.90
76211;DHT22;65003;49.518;11.280;2024-01-06T08:26:06;4.80;99.90
76211;DHT22;65003;49.518;11.280;2024-01-06T08:28:33;4.70;99.90
76211;DHT22;65003;49.518;11.280;2024-01-06T08:30:59;4.90;99.90
76211;DHT22;65003;49.518;11.280;2024-01-06T08:33:26;5.10;99.90
76211;DHT22;65003;49.518;11.280;2024-01-06T08:35:53;5.20;99.90
76211;DHT22;65003;49.518;11.280;2024-01-06T08:38:19;5.10;99.90
76211;DHT22;65003;49.518;11.280;2024-01-06T08:40:46;5.20;99.90
76211;DHT22;65003;49.518;11.280;2024-01-06T08:43:12;5.30;99.90
76211;DHT22;65003;49.518;11.280;2024-01-06T08:45:39;5.30;99.90
76211;DHT22;65003;49.518;11.280;2024-01-06T08:48:06;5.50;99.90
76211;DHT22;65003;49.518;11.280;2024-01-06T08:50:32;5.50;99.90
76211;DHT22;65003;49.518;11.280;2024-01-06T08:52:59;5.60;99.90
76211;DHT22;65003;49.518;11.280;2024-01-06T08:55:26;5.70;99.90
76211;DHT22;65003;49.518;11.280;2024-01-06T08:57:52;5.60;99.90
76211;DHT22;65003;49.518;11.280;2024-01-06T09:00:19;5.70;99.90
76211;DHT22;65003;49.518;11.280;2024-01-06T09:02:46;5.90;99.90
76211;DHT22;65003;49.518;11.280;2024-01-06T09:05:12;5.80;99.90
76211;DHT22;65003;49.518;11.280;2024-01-06T09:07:39;5.60;99.90
76211;DHT22;65003;49.518;11.280;2024-01-06T09:10:06;5.50;99.90
76211;DHT22;65003;49.518;11.280;2024-01-06T09:12:33;5.60;99.90
76211;DHT22;65003;49.518;11.280;2024-01-06T09:14:59;5.60;99.90
76211;DHT22;65003;49.518;11.280;2024-01-06T09:17:26;5.60;99.90
76211;DHT22;65003;49.518;11.280;2024-01-06T09:19:52;5.60;99.90
76211;DHT22;65003;49.518;11.280;2024-01-06T09:22:19;5.60;99.90
76211;DHT22;65003;49.518;11.280;2024-01-06T09:24:45;5.60;99.90
76211;DHT22;65003;49.518;11.280;2024-01-06T09:27:12;5.80;99.90
76211;DHT22;65003;49.518;11.280;2024-01-06T09:29:39;6.00;99.90
76211;DHT22;65003;49.518;11.280;2024-01-06T09:32:05;6.30;99.90
76211;DHT22;65003;49.518;11.280;2024-01-06T09:34:32;6.40;99.90
76211;DHT22;65003;49.518;11.280;2024-01-06T09:36:58;6.60;99.90
76211;DHT22;65003;49.518;11.280;2024-01-06T09:39:25;6.60;99.90
76211;DHT22;65003;49.518;11.280;2024-01-06T09:41:52;6.60;99.90
76211;DHT22;65003;49.518;11.280;2024-01-06T09:44:18;6.60;99.90
76211;DHT22;65003;49.518;11.280;2024-01-06T09:46:45;6.70;99.90
76211;DHT22;65003;49.518;11.280;2024-01-06T09:49:11;6.70;99.90
76211;DHT22;65003;49.518;11.280;2024-01-06T09:51:38;6.80;99.90
76211;DHT22;65003;49.518;11.280;2024-01-06T09:54:06;7.00;99.90
76211;DHT22;65003;49.518;11.280;2024-01-06T09:56:31;7.10;99.90
76211;DHT22;65003;49.518;11.280;2024-01-06T09:58:58;7.10;99.90
76211;DHT22;65003;49.518;11.280;2024-01-06T10:01:24;7.10;99.90
76211;DHT22;65003;49.518;11.280;2024-01-06T10:03:51;7.10;99.90
76211;DHT22;65003;49.518;11.280;2024-01-06T10:06:18;7.20;99.90
76211;DHT22;65003;49.518;11.280;2024-01-06T10:08:48;7.10;99.90
76211;DHT22;65003;49.518;11.280;2024-01-06T10:11:14;7.00;99.90
76211;DHT22;65003;49.518;11.280;2024-01-06T10:13:41;6.90;99.90
76211;DHT22;65003;49.518;11.280;2024-01-06T10:16:07;6.90;99.90
76211;DHT22;65003;49.518;11.280;2024-01-06T10:18:34;6.90;99.90
76211;DHT22;65003;49.518;11.280;2024-01-06T10:21:04;6.90;99.90
76211;DHT22;65003;49.518;11.280;2024-01-06T10:23:31;7.00;99.90
76211;DHT22;65003;49.518;11.280;2024-01-06T10:25:57;7.10;99.90
76211;DHT22;65003;49.518;11.280;2024-01-06T10:28:24;7.10;99.90
76211;DHT22;65003;49.518;11.280;2024-01-06T10:30:52;7.20;99.90
76211;DHT22;65003;49.518;11.280;2024-01-06T10:33:19;7.30;99.90
76211;DHT22;65003;49.518;11.280;2024-01-06T10:35:45;7.30;99.90
76211;DHT22;65003;49.518;11.280;2024-01-06T10:38:11;7.30;99.90
76211;DHT22;65003;49.518;11.280;2024-01-06T10:40:38;7.20;99.90
76211;DHT22;65003;49.518;11.280;2024-01-06T10:43:05;7.30;99.90
76211;DHT22;65003;49.518;11.280;2024-01-06T10:45:32;7.30;99.90
76211;DHT22;65003;49.518;11.280;2024-01-06T10:47:59;7.20;99.90
76211;DHT22;65003;49.518;11.280;2024-01-06T10:50:25;7.10;99.90
76211;DHT22;65003;49.518;11.280;2024-01-06T10:52:52;7.10;99.90
76211;DHT22;65003;49.518;11.280;2024-01-06T10:55:18;7.10;99.90
76211;DHT22;65003;49.518;11.280;2024-01-06T10:57:45;7.00;99.90
76211;DHT22;65003;49.518;11.280;2024-01-06T11:00:13;7.00;99.90
76211;DHT22;65003;49.518;11.280;2024-01-06T11:02:39;7.10;99.90
76211;DHT22;65003;49.518;11.280;2024-01-06T11:05:08;7.10;99.90
76211;DHT22;65003;49.518;11.280;2024-01-06T11:07:34;7.20;99.90
76211;DHT22;65003;49.518;11.280;2024-01-06T11:10:17;7.20;99.90
76211;DHT22;65003;49.518;11.280;2024-01-06T11:12:43;7.20;99.90
76211;DHT22;65003;49.518;11.280;2024-01-06T11:15:10;7.20;99.90
76211;DHT22;65003;49.518;11.280;2024-01-06T11:17:49;7.10;99.90
76211;DHT22;65003;49.518;11.280;2024-01-06T11:20:15;7.20;99.90
76211;DHT22;65003;49.518;11.280;2024-01-06T11:22:41;7.20;99.90
76211;DHT22;65003;49.518;11.280;2024-01-06T11:25:10;7.30;99.90
76211;DHT22;65003;49.518;11.280;2024-01-06T11:27:35;7.30;99.90
76211;DHT22;65003;49.518;11.280;2024-01-06T11:30:02;7.40;99.90
76211;DHT22;65003;49.518;11.280;2024-01-06T11:32:30;7.40;99.90
76211;DHT22;65003;49.518;11.280;2024-01-06T11:34:56;7.30;99.90
76211;DHT22;65003;49.518;11.280;2024-01-06T11:37:24;7.20;99.90
76211;DHT22;65003;49.518;11.280;2024-01-06T11:39:50;7.20;99.90
76211;DHT22;65003;49.518;11.280;2024-01-06T11:42:17;7.20;99.90
76211;DHT22;65003;49.518;11.280;2024-01-06T11:44:43;7.10;99.90
76211;DHT22;65003;49.518;11.280;2024-01-06T11:47:10;7.10;99.90
76211;DHT22;65003;49.518;11.280;2024-01-06T11:49:36;7.10;99.90
76211;DHT22;65003;49.518;11.280;2024-01-06T11:52:03;7.30;99.90
76211;DHT22;65003;49.518;11.280;2024-01-06T11:54:30;7.40;99.90
76211;DHT22;65003;49.518;11.280;2024-01-06T11:56:57;7.50;99.90
76211;DHT22;65003;49.518;11.280;2024-01-06T11:59:23;7.60;99.90
76211;DHT22;65003;49.518;11.280;2024-01-06T12:01:50;7.60;99.90
76211;DHT22;65003;49.518;11.280;2024-01-06T12:04:17;7.50;99.90
76211;DHT22;65003;49.518;11.280;2024-01-06T12:06:43;7.50;99.90
76211;DHT22;65003;49.518;11.280;2024-01-06T12:09:11;7.50;99.90
76211;DHT22;65003;49.518;11.280;2024-01-06T12:11:40;7.50;99.90
76211;DHT22;65003;49.518;11.280;2024-01-06T12:14:07;7.40;99.90
76211;DHT22;65003;49.518;11.280;2024-01-06T12:16:33;7.50;99.90
76211;DHT22;65003;49.518;11.280;2024-01-06T12:19:00;7.50;99.90
76211;DHT22;65003;49.518;11.280;2024-01-06T12:21:27;7.50;99.90
76211;DHT22;65003;49.518;11.280;2024-01-06T12:23:53;7.50;99.90
76211;DHT22;65003;49.518;11.280;2024-01-06T12:26:19;7.40;99.90
76211;DHT22;65003;49.518;11.280;2024-01-06T12:28:46;7.40;99.90
76211;DHT22;65003;49.518;11.280;2024-01-06T12:31:13;7.40;99.90
76211;DHT22;65003;49.518;11.280;2024-01-06T12:33:39;7.50;99.90
76211;DHT22;65003;49.518;11.280;2024-01-06T12:36:07;7.60;99.90
76211;DHT22;65003;49.518;11.280;2024-01-06T12:38:34;7.70;99.90
76211;DHT22;65003;49.518;11.280;2024-01-06T12:41:01;7.70;99.90
76211;DHT22;65003;49.518;11.280;2024-01-06T12:43:28;7.70;99.90
76211;DHT22;65003;49.518;11.280;2024-01-06T12:45:54;7.70;99.90
76211;DHT22;65003;49.518;11.280;2024-01-06T12:48:21;7.70;99.90
76211;DHT22;65003;49.518;11.280;2024-01-06T12:50:47;7.70;99.90
76211;DHT22;65003;49.518;11.280;2024-01-06T12:53:14;7.60;99.90
76211;DHT22;65003;49.518;11.280;2024-01-06T12:55:41;7.60;99.90
76211;DHT22;65003;49.518;11.280;2024-01-06T12:58:07;7.60;99.90
76211;DHT22;65003;49.518;11.280;2024-01-06T13:00:35;7.60;99.90
76211;DHT22;65003;49.518;11.280;2024-01-06T13:03:01;7.60;99.90
76211;DHT22;65003;49.518;11.280;2024-01-06T13:05:28;7.60;99.90
76211;DHT22;65003;49.518;11.280;2024-01-06T13:07:55;7.50;99.90
76211;DHT22;65003;49.518;11.280;2024-01-06T13:10:22;7.50;99.90
76211;DHT22;65003;49.518;11.280;2024-01-06T13:12:48;7.60;99.90
76211;DHT22;65003;49.518;11.280;2024-01-06T13:15:15;7.60;99.90
76211;DHT22;65003;49.518;11.280;2024-01-06T13:17:41;7.50;99.90
76211;DHT22;65003;49.518;11.280;2024-01-06T13:20:08;7.40;99.90
76211;DHT22;65003;49.518;11.280;2024-01-06T13:22:35;7.50;99.90
76211;DHT22;65003;49.518;11.280;2024-01-06T13:25:02;7.40;99.90
76211;DHT22;65003;49.518;11.280;2024-01-06T13:27:28;7.30;99.90
76211;DHT22;65003;49.518;11.280;2024-01-06T13:29:55;7.40;99.90
76211;DHT22;65003;49.518;11.280;2024-01-06T13:32:21;7.30;99.90
76211;DHT22;65003;49.518;11.280;2024-01-06T13:34:48;7.30;99.90
76211;DHT22;65003;49.518;11.280;2024-01-06T13:37:15;7.40;99.90
76211;DHT22;65003;49.518;11.280;2024-01-06T13:39:41;7.40;99.90
76211;DHT22;65003;49.518;11.280;2024-01-06T13:42:08;7.30;99.90
76211;DHT22;65003;49.518;11.280;2024-01-06T13:44:35;7.30;99.90
76211;DHT22;65003;49.518;11.280;2024-01-06T13:47:01;7.30;99.90
76211;DHT22;65003;49.518;11.280;2024-01-06T13:49:28;7.40;99.90
76211;DHT22;65003;49.518;11.280;2024-01-06T13:51:54;7.50;99.90
76211;DHT22;65003;49.518;11.280;2024-01-06T13:54:21;7.50;99.90
76211;DHT22;65003;49.518;11.280;2024-01-06T13:56:48;7.50;99.90
76211;DHT22;65003;49.518;11.280;2024-01-06T13:59:15;7.60;99.90
76211;DHT22;65003;49.518;11.280;2024-01-06T14:01:41;7.60;99.90
76211;DHT22;65003;49.518;11.280;2024-01-06T14:04:07;7.60;99.90
76211;DHT22;65003;49.518;11.280;2024-01-06T14:06:34;7.60;99.90
76211;DHT22;65003;49.518;11.280;2024-01-06T14:09:00;7.70;99.90
76211;DHT22;65003;49.518;11.280;2024-01-06T14:11:27;7.70;99.90
76211;DHT22;65003;49.518;11.280;2024-01-06T14:13:54;7.60;99.90
76211;DHT22;65003;49.518;11.280;2024-01-06T14:16:20;7.50;99.90
76211;DHT22;65003;49.518;11.280;2024-01-06T14:18:47;7.40;99.90
76211;DHT22;65003;49.518;11.280;2024-01-06T14:21:14;7.40;99.90
76211;DHT22;65003;49.518;11.280;2024-01-06T14:23:41;7.30;99.90
76211;DHT22;65003;49.518;11.280;2024-01-06T14:26:07;7.30;99.90
76211;DHT22;65003;49.518;11.280;2024-01-06T14:28:33;7.20;99.90
76211;DHT22;65003;49.518;11.280;2024-01-06T14:31:00;7.20;99.90
76211;DHT22;65003;49.518;11.280;2024-01-06T14:33:26;7.10;99.90
76211;DHT22;65003;49.518;11.280;2024-01-06T14:35:53;7.10;99.90
76211;DHT22;65003;49.518;11.280;2024-01-06T14:38:20;7.10;99.90
76211;DHT22;65003;49.518;11.280;2024-01-06T14:40:46;7.00;99.90
76211;DHT22;65003;49.518;11.280;2024-01-06T14:43:13;7.00;99.90
76211;DHT22;65003;49.518;11.280;2024-01-06T14:45:39;7.00;99.90
76211;DHT22;65003;49.518;11.280;2024-01-06T14:48:06;7.00;99.90
76211;DHT22;65003;49.518;11.280;2024-01-06T14:50:33;7.00;99.90
76211;DHT22;65003;49.518;11.280;2024-01-06T14:52:59;7.00;99.90
76211;DHT22;65003;49.518;11.280;2024-01-06T14:55:26;7.00;99.90
76211;DHT22;65003;49.518;11.280;2024-01-06T14:57:52;7.00;99.90
76211;DHT22;65003;49.518;11.280;2024-01-06T15:00:19;7.10;99.90
76211;DHT22;65003;49.518;11.280;2024-01-06T15:02:46;7.10;99.90
76211;DHT22;65003;49.518;11.280;2024-01-06T15:05:12;7.00;99.90
76211;DHT22;65003;49.518;11.280;2024-01-06T15:07:39;6.80;99.90
76211;DHT22;65003;49.518;11.280;2024-01-06T15:10:06;6.70;99.90
76211;DHT22;65003;49.518;11.280;2024-01-06T15:12:32;6.70;99.90
76211;DHT22;65003;49.518;11.280;2024-01-06T15:14:59;6.60;99.90
76211;DHT22;65003;49.518;11.280;2024-01-06T15:17:26;6.50;99.90
76211;DHT22;65003;49.518;11.280;2024-01-06T15:19:52;6.50;99.90
76211;DHT22;65003;49.518;11.280;2024-01-06T15:22:19;6.40;99.90
76211;DHT22;65003;49.518;11.280;2024-01-06T15:24:45;6.40;99.90